createdAt,value
2018-06-02T00:02:13.281Z,44.75
2018-06-02T00:04:41.601Z,49.60
2018-06-02T00:07:09.218Z,42.33
2018-06-02T00:09:37.545Z,126.10
2018-06-02T00:12:05.097Z,49.00
2018-06-02T00:14:32.710Z,102.50
2018-06-02T00:17:01.034Z,71.33
2018-06-02T00:19:28.605Z,136.97
2018-06-02T00:21:56.201Z,69.20
2018-06-02T00:24:23.776Z,82.23
2018-06-02T00:26:52.110Z,61.17
2018-06-02T00:29:20.078Z,68.33
2018-06-02T00:31:47.638Z,62.23
2018-06-02T00:34:15.208Z,132.20
2018-06-02T00:36:42.820Z,111.70
2018-06-02T00:39:10.384Z,92.90
2018-06-02T00:41:38.721Z,77.27
2018-06-02T00:44:06.309Z,92.03
2018-06-02T00:46:34.656Z,107.23
2018-06-02T00:49:02.217Z,85.37
2018-06-02T00:51:29.829Z,74.00
2018-06-02T00:53:57.393Z,105.37
2018-06-02T00:56:24.949Z,41.40
2018-06-02T00:58:52.546Z,65.10
2018-06-02T01:01:20.101Z,72.67
2018-06-02T01:03:47.664Z,35.37
2018-06-02T01:06:15.260Z,79.40
2018-06-02T01:08:42.822Z,23.83
2018-06-02T01:11:10.384Z,55.23
2018-06-02T01:13:38.424Z,69.97
2018-06-02T01:16:08.712Z,31.83
2018-06-02T01:18:36.268Z,45.33
2018-06-02T01:21:03.874Z,28.43
2018-06-02T01:23:31.436Z,37.53
2018-06-02T01:25:58.993Z,16.93
2018-06-02T01:28:26.594Z,15.77
2018-06-02T01:30:54.156Z,14.33
2018-06-02T01:33:23.586Z,14.87
2018-06-02T01:35:49.325Z,15.50
2018-06-02T01:38:16.876Z,16.00
2018-06-02T01:40:44.437Z,10.47
2018-06-02T01:43:12.029Z,15.60
2018-06-02T01:45:39.597Z,15.43
2018-06-02T01:48:07.144Z,13.80
2018-06-02T01:50:34.740Z,14.97
2018-06-02T01:55:39.114Z,16.77
2018-06-02T01:58:06.673Z,14.67
2018-06-02T02:00:34.241Z,18.90
2018-06-02T02:03:01.834Z,12.37
2018-06-02T02:05:29.394Z,14.67
2018-06-02T02:07:56.959Z,25.13
2018-06-02T02:10:24.554Z,16.13
2018-06-02T02:12:52.874Z,15.73
2018-06-02T02:15:20.428Z,11.73
2018-06-02T02:17:48.031Z,9.70
2018-06-02T02:20:15.588Z,11.97
2018-06-02T02:22:43.145Z,10.70
2018-06-02T02:25:10.730Z,10.40
2018-06-02T02:27:39.065Z,11.07
2018-06-02T02:30:06.629Z,8.37
2018-06-02T02:32:34.213Z,10.67
2018-06-02T02:35:01.773Z,8.57
2018-06-02T02:37:29.328Z,8.53
2018-06-02T02:39:57.391Z,8.93
2018-06-02T02:42:24.947Z,10.17
2018-06-02T02:44:52.505Z,8.07
2018-06-02T02:47:20.197Z,7.53
2018-06-02T02:49:47.755Z,6.70
2018-06-02T02:52:15.310Z,7.63
2018-06-02T02:54:42.903Z,8.50
2018-06-02T02:57:11.225Z,6.90
2018-06-02T02:59:38.790Z,7.63
2018-06-02T03:02:06.379Z,8.00
2018-06-02T03:04:33.948Z,7.97
2018-06-02T03:07:01.506Z,9.40
2018-06-02T03:09:29.105Z,8.00
2018-06-02T03:11:56.676Z,8.53
2018-06-02T03:14:24.230Z,7.47
2018-06-02T03:16:51.829Z,10.17
2018-06-02T03:19:19.387Z,8.57
2018-06-02T03:21:46.941Z,9.80
2018-06-02T03:24:14.937Z,12.17
2018-06-02T03:26:42.492Z,9.60
2018-06-02T03:29:10.060Z,12.30
2018-06-02T03:31:37.653Z,13.50
2018-06-02T03:34:05.218Z,12.10
2018-06-02T03:36:33.545Z,12.37
2018-06-02T03:39:01.138Z,10.20
2018-06-02T03:41:28.699Z,11.17
2018-06-02T03:43:56.257Z,10.03
2018-06-02T03:46:23.877Z,11.03
2018-06-02T03:48:51.435Z,8.93
2018-06-02T03:51:18.991Z,9.67
2018-06-02T03:53:46.820Z,9.97
2018-06-02T03:56:15.145Z,11.97
2018-06-02T03:58:42.711Z,9.87
2018-06-02T04:01:10.344Z,10.37
2018-06-02T04:03:37.911Z,9.70
2018-06-02T04:06:05.487Z,10.47
2018-06-02T04:08:33.087Z,11.83
2018-06-02T04:11:00.646Z,12.23
2018-06-02T04:13:28.197Z,11.07
2018-06-02T04:15:55.812Z,13.20
2018-06-02T04:18:24.122Z,12.97
2018-06-02T04:20:51.691Z,11.00
2018-06-02T04:23:19.277Z,11.30
2018-06-02T04:25:46.837Z,14.97
2018-06-02T04:28:14.400Z,10.70
2018-06-02T04:30:42.013Z,12.03
2018-06-02T04:33:09.572Z,10.70
2018-06-02T04:35:37.131Z,12.13
2018-06-02T04:38:04.734Z,14.67
2018-06-02T04:40:32.298Z,12.43
2018-06-02T04:42:59.859Z,11.27
2018-06-02T04:45:27.454Z,11.60
2018-06-02T04:47:55.771Z,12.93
2018-06-02T04:50:23.339Z,12.53
2018-06-02T04:52:50.943Z,11.93
2018-06-02T04:55:19.271Z,12.87
2018-06-02T04:57:46.853Z,10.87
2018-06-02T05:00:14.451Z,11.90
2018-06-02T05:02:42.023Z,15.98
2018-06-02T05:05:09.577Z,15.00
2018-06-02T05:07:37.943Z,13.00
2018-06-02T05:10:05.495Z,14.63
2018-06-02T05:12:33.060Z,14.53
2018-06-02T05:15:00.833Z,16.67
2018-06-02T05:17:29.160Z,13.40
2018-06-02T05:19:56.719Z,14.07
2018-06-02T05:22:24.311Z,14.80
2018-06-02T05:24:51.871Z,12.53
2018-06-02T05:27:19.431Z,13.90
2018-06-02T05:29:47.033Z,14.27
2018-06-02T05:32:15.363Z,17.67
2018-06-02T05:34:42.934Z,17.43
2018-06-02T05:37:10.551Z,14.90
2018-06-02T05:39:38.124Z,16.90
2018-06-02T05:42:05.669Z,17.37
2018-06-02T05:44:33.275Z,19.57
2018-06-02T05:47:00.847Z,14.50
2018-06-02T05:49:28.410Z,13.57
2018-06-02T05:51:56.005Z,17.27
2018-06-02T05:54:23.565Z,16.37
2018-06-02T05:56:51.900Z,17.63
2018-06-02T05:59:19.529Z,17.47
2018-06-02T06:01:47.109Z,15.33
2018-06-02T06:04:14.671Z,15.97
2018-06-02T06:06:42.266Z,15.50
2018-06-02T06:09:09.840Z,16.03
2018-06-02T06:11:38.167Z,17.90
2018-06-02T06:14:05.771Z,17.93
2018-06-02T06:16:33.334Z,15.80
2018-06-02T06:19:00.907Z,14.50
2018-06-02T06:21:29.311Z,15.57
2018-06-02T06:23:56.871Z,17.63
2018-06-02T06:26:24.466Z,17.47
2018-06-02T06:28:52.089Z,16.03
2018-06-02T06:31:19.659Z,16.07
2018-06-02T06:33:47.215Z,11.50
2018-06-02T06:36:14.809Z,12.27
2018-06-02T06:38:42.405Z,11.30
2018-06-02T06:41:09.996Z,14.87
2018-06-02T06:43:38.453Z,12.37
2018-06-02T06:46:06.796Z,14.50
2018-06-02T06:48:35.309Z,12.30
2018-06-02T06:51:02.903Z,14.90
2018-06-02T06:53:30.462Z,15.10
2018-06-02T06:55:58.029Z,11.20
2018-06-02T06:58:25.630Z,11.27
2018-06-02T07:00:53.191Z,12.20
2018-06-02T07:03:20.748Z,11.93
2018-06-02T07:05:48.402Z,10.70
2018-06-02T07:08:15.978Z,12.13
2018-06-02T07:10:43.586Z,10.23
2018-06-02T07:13:11.949Z,11.73
2018-06-02T07:15:39.577Z,9.50
2018-06-02T07:18:07.061Z,10.03
2018-06-02T07:20:34.652Z,9.73
2018-06-02T07:23:02.982Z,12.13
2018-06-02T07:25:30.535Z,8.77
2018-06-02T07:27:58.137Z,10.10
2018-06-02T07:30:26.463Z,8.10
2018-06-02T07:32:54.016Z,6.23
2018-06-02T07:35:21.613Z,5.53
2018-06-02T07:37:49.173Z,6.50
2018-06-02T07:40:16.733Z,10.60
2018-06-02T07:42:45.302Z,6.60
2018-06-02T07:45:12.860Z,7.30
2018-06-02T07:47:40.417Z,8.17
2018-06-02T07:50:08.037Z,6.90
2018-06-02T07:52:35.561Z,6.73
2018-06-02T07:55:03.125Z,6.20
2018-06-02T07:57:30.719Z,4.83
2018-06-02T07:59:59.043Z,5.85
2018-06-02T08:02:26.591Z,4.63
2018-06-02T08:04:54.781Z,5.70
2018-06-02T08:07:22.372Z,9.83
2018-06-02T08:09:49.933Z,5.63
2018-06-02T08:12:17.537Z,4.93
2018-06-02T08:14:45.094Z,5.80
2018-06-02T08:17:12.673Z,6.00
2018-06-02T08:19:40.278Z,5.07
2018-06-02T08:22:07.837Z,7.83
2018-06-02T08:24:35.398Z,3.97
2018-06-02T08:27:03.011Z,5.10
2018-06-02T08:29:30.607Z,3.37
2018-06-02T08:31:58.161Z,4.20
2018-06-02T08:34:25.760Z,5.30
2018-06-02T08:36:53.357Z,3.27
2018-06-02T08:39:21.644Z,4.53
2018-06-02T08:41:49.257Z,4.33
2018-06-02T08:44:16.824Z,5.43
2018-06-02T08:46:45.141Z,5.93
2018-06-02T08:49:12.742Z,4.03
2018-06-02T08:51:40.297Z,4.63
2018-06-02T08:54:07.862Z,4.50
2018-06-02T08:56:35.545Z,5.05
2018-06-02T08:59:03.120Z,5.70
2018-06-02T09:01:31.458Z,6.18
2018-06-02T09:03:59.070Z,4.33
2018-06-02T09:06:26.630Z,4.90
2018-06-02T09:08:54.190Z,4.07
2018-06-02T09:11:22.556Z,5.93
2018-06-02T09:13:50.883Z,6.17
2018-06-02T09:16:18.452Z,9.23
2018-06-02T09:18:46.052Z,4.57
2018-06-02T09:21:13.611Z,4.83
2018-06-02T09:23:41.210Z,3.20
2018-06-02T09:26:08.764Z,5.20
2018-06-02T09:28:36.330Z,3.00
2018-06-02T09:31:03.890Z,5.37
2018-06-02T09:33:31.484Z,4.43
2018-06-02T09:35:59.051Z,4.17
2018-06-02T09:38:26.610Z,2.97
2018-06-02T09:40:54.213Z,5.13
2018-06-02T09:43:22.540Z,4.73
2018-06-02T09:45:50.099Z,4.63
2018-06-02T09:48:17.692Z,4.00
2018-06-02T09:50:45.247Z,3.83
2018-06-02T09:53:12.813Z,4.57
2018-06-02T09:55:40.418Z,15.27
2018-06-02T09:58:08.746Z,4.80
2018-06-02T10:00:38.843Z,8.33
2018-06-02T10:03:06.489Z,40.22
2018-06-02T10:05:34.055Z,13.00
2018-06-02T10:08:01.614Z,11.57
2018-06-02T10:10:29.275Z,5.83
2018-06-02T10:12:56.995Z,4.23
2018-06-02T10:15:24.554Z,2.87
2018-06-02T10:17:52.151Z,2.57
2018-06-02T10:20:19.776Z,5.87
2018-06-02T10:22:47.330Z,5.32
2018-06-02T10:25:15.555Z,6.07
2018-06-02T10:27:43.115Z,4.80
2018-06-02T10:30:10.669Z,4.30
2018-06-02T10:32:38.288Z,5.30
2018-06-02T10:35:05.850Z,8.60
2018-06-02T10:37:33.413Z,5.73
2018-06-02T10:40:01.000Z,7.87
2018-06-02T10:42:29.324Z,5.57
2018-06-02T10:44:56.883Z,7.80
2018-06-02T10:47:24.966Z,5.83
2018-06-02T10:49:52.543Z,3.40
2018-06-02T10:52:20.107Z,7.80
2018-06-02T10:54:47.697Z,11.30
2018-06-02T10:57:16.025Z,6.35
2018-06-02T10:59:43.591Z,3.07
2018-06-02T11:02:11.184Z,4.17
2018-06-02T11:04:38.735Z,2.70
2018-06-02T11:07:06.294Z,5.17
2018-06-02T11:09:34.324Z,3.17
2018-06-02T11:12:01.886Z,2.43
2018-06-02T11:14:29.435Z,3.37
2018-06-02T11:16:57.046Z,1.80
2018-06-02T11:19:24.607Z,4.90
2018-06-02T11:21:52.186Z,2.53
2018-06-02T11:24:20.609Z,2.47
2018-06-02T11:26:48.164Z,2.43
2018-06-02T11:29:15.722Z,2.63
2018-06-02T11:31:43.317Z,3.53
2018-06-02T11:34:10.881Z,3.57
2018-06-02T11:36:38.455Z,2.57
2018-06-02T11:39:06.063Z,3.57
2018-06-02T11:41:33.615Z,3.03
2018-06-02T11:44:01.991Z,3.43
2018-06-02T11:46:29.536Z,3.50
2018-06-02T11:48:57.093Z,4.20
2018-06-02T11:51:24.806Z,2.17
2018-06-02T11:53:52.444Z,4.10
2018-06-02T11:56:20.770Z,3.77
2018-06-02T11:58:48.329Z,2.47
2018-06-02T12:01:15.922Z,2.83
2018-06-02T12:03:43.860Z,4.63
2018-06-02T12:06:11.421Z,1.60
2018-06-02T12:08:39.005Z,3.77
2018-06-02T12:11:06.910Z,2.47
2018-06-02T12:13:34.472Z,3.23
2018-06-02T12:16:02.118Z,2.67
2018-06-02T12:18:29.646Z,3.77
2018-06-02T12:20:57.243Z,3.30
2018-06-02T12:23:24.808Z,3.50
2018-06-02T12:25:52.366Z,5.70
2018-06-02T12:28:19.988Z,2.80
2018-06-02T12:30:47.531Z,2.53
2018-06-02T12:33:15.072Z,5.13
2018-06-02T12:35:42.633Z,2.67
2018-06-02T12:38:10.227Z,2.53
2018-06-02T12:40:37.782Z,4.40
2018-06-02T12:43:05.338Z,4.10
2018-06-02T12:45:32.929Z,4.30
2018-06-02T12:48:00.599Z,3.47
2018-06-02T12:50:28.158Z,4.97
2018-06-02T12:52:55.743Z,4.65
2018-06-02T12:55:24.070Z,3.78
2018-06-02T12:57:51.621Z,3.67
2018-06-02T13:00:19.220Z,2.33
2018-06-02T13:02:46.778Z,2.37
2018-06-02T13:05:14.333Z,1.80
2018-06-02T13:07:41.920Z,4.97
2018-06-02T13:10:10.250Z,3.70
2018-06-02T13:12:37.826Z,2.57
2018-06-02T13:15:05.436Z,6.77
2018-06-02T13:17:32.979Z,4.17
2018-06-02T13:20:00.619Z,3.33
2018-06-02T13:22:28.168Z,3.63
2018-06-02T13:24:55.759Z,4.00
2018-06-02T13:27:23.319Z,2.30
2018-06-02T13:29:50.946Z,2.80
2018-06-02T13:32:18.507Z,4.00
2018-06-02T13:34:46.068Z,2.87
2018-06-02T13:37:13.687Z,5.10
2018-06-02T13:39:42.017Z,4.13
2018-06-02T13:42:09.570Z,5.00
2018-06-02T13:44:37.554Z,3.73
2018-06-02T13:47:05.115Z,6.13
2018-06-02T13:49:32.675Z,5.93
2018-06-02T13:52:00.266Z,2.17
2018-06-02T13:54:27.814Z,5.27
2018-06-02T13:56:55.394Z,2.57
2018-06-02T13:59:23.753Z,4.13
2018-06-02T14:01:51.310Z,4.67
2018-06-02T14:04:18.876Z,8.47
2018-06-02T14:06:46.458Z,6.47
2018-06-02T14:09:14.776Z,4.53
2018-06-02T14:11:42.333Z,8.60
2018-06-02T14:14:09.951Z,8.47
2018-06-02T14:16:37.505Z,3.87
2018-06-02T14:19:05.097Z,5.77
2018-06-02T14:21:32.650Z,3.95
2018-06-02T14:24:00.979Z,7.00
2018-06-02T14:26:28.547Z,3.63
2018-06-02T14:28:56.146Z,4.73
2018-06-02T14:31:24.463Z,4.03
2018-06-02T14:33:52.021Z,5.23
2018-06-02T14:36:20.533Z,1.80
2018-06-02T14:38:48.089Z,4.03
2018-06-02T14:41:15.649Z,6.27
2018-06-02T14:43:43.282Z,5.43
2018-06-02T14:46:11.572Z,4.53
2018-06-02T14:48:39.137Z,3.77
2018-06-02T14:51:06.767Z,3.00
2018-06-02T14:53:34.327Z,3.10
2018-06-02T14:56:01.880Z,3.97
2018-06-02T14:58:30.258Z,3.37
2018-06-02T15:00:57.816Z,3.60
2018-06-02T15:03:25.375Z,5.40
2018-06-02T15:05:53.012Z,4.13
2018-06-02T15:08:20.559Z,3.10
2018-06-02T15:10:48.121Z,4.57
2018-06-02T15:13:15.718Z,4.03
2018-06-02T15:15:44.054Z,5.23
2018-06-02T15:18:11.613Z,2.27
2018-06-02T15:20:39.202Z,1.90
2018-06-02T15:23:06.757Z,4.00
2018-06-02T15:25:34.308Z,5.67
2018-06-02T15:28:02.477Z,4.40
2018-06-02T15:30:30.039Z,4.77
2018-06-02T15:32:57.593Z,4.17
2018-06-02T15:35:25.709Z,3.10
2018-06-02T15:37:53.260Z,4.10
2018-06-02T15:40:20.818Z,3.70
2018-06-02T15:42:48.414Z,3.30
2018-06-02T15:45:16.740Z,4.70
2018-06-02T15:47:44.293Z,2.17
2018-06-02T15:50:12.610Z,4.43
2018-06-02T15:52:40.185Z,4.50
2018-06-02T15:55:08.521Z,2.77
2018-06-02T15:57:36.115Z,2.67
2018-06-02T16:00:03.671Z,3.87
2018-06-02T16:02:45.419Z,3.83
2018-06-02T16:05:12.940Z,1.87
2018-06-02T16:07:40.498Z,2.47
2018-06-02T16:10:08.069Z,3.17
2018-06-02T16:12:35.621Z,5.00
2018-06-02T16:15:03.953Z,3.97
2018-06-02T16:17:31.935Z,4.70
2018-06-02T16:19:59.493Z,3.93
2018-06-02T16:22:27.051Z,2.43
2018-06-02T16:24:54.642Z,3.50
2018-06-02T16:27:22.205Z,1.50
2018-06-02T16:29:49.763Z,2.83
2018-06-02T16:32:17.358Z,3.83
2018-06-02T16:34:44.953Z,3.63
2018-06-02T16:37:12.486Z,2.40
2018-06-02T16:39:40.093Z,1.77
2018-06-02T16:42:07.676Z,2.87
2018-06-02T16:44:35.200Z,1.98
2018-06-02T16:47:02.796Z,2.77
2018-06-02T16:49:31.131Z,1.77
2018-06-02T16:51:58.690Z,1.30
2018-06-02T16:54:26.292Z,4.63
2018-06-02T16:56:53.849Z,2.73
2018-06-02T16:59:21.402Z,1.80
2018-06-02T17:01:48.999Z,2.00
2018-06-02T17:04:17.330Z,2.80
2018-06-02T17:06:44.881Z,2.10
2018-06-02T17:09:12.471Z,2.80
2018-06-02T17:11:40.029Z,1.27
2018-06-02T17:14:07.631Z,3.22
2018-06-02T17:16:35.235Z,3.62
2018-06-02T17:19:02.806Z,2.30
2018-06-02T17:21:30.356Z,2.97
2018-06-02T17:23:58.530Z,2.62
2018-06-02T17:26:26.089Z,1.60
2018-06-02T17:28:53.641Z,4.40
2018-06-02T17:31:21.226Z,1.20
2018-06-02T17:33:48.790Z,2.40
2018-06-02T17:36:16.359Z,1.13
2018-06-02T17:38:43.953Z,1.20
2018-06-02T17:41:11.511Z,2.72
2018-06-02T17:43:39.062Z,1.33
2018-06-02T17:46:07.495Z,1.60
2018-06-02T17:48:35.051Z,1.77
2018-06-02T17:51:02.610Z,1.80
2018-06-02T17:53:30.243Z,2.03
2018-06-02T17:55:57.799Z,1.57
2018-06-02T17:58:26.119Z,1.73
2018-06-02T18:00:53.721Z,2.50
2018-06-02T18:03:23.739Z,1.63
2018-06-02T18:05:49.606Z,2.40
2018-06-02T18:08:17.586Z,1.67
2018-06-02T18:10:45.140Z,2.37
2018-06-02T18:13:12.700Z,1.80
2018-06-02T18:15:40.296Z,1.63
2018-06-02T18:18:07.849Z,2.60
2018-06-02T18:20:35.407Z,1.40
2018-06-02T18:23:03.180Z,1.77
2018-06-02T18:25:36.504Z,2.90
2018-06-02T18:28:04.825Z,3.00
2018-06-02T18:30:32.416Z,4.40
2018-06-02T18:32:59.973Z,4.83
2018-06-02T18:35:27.531Z,3.63
2018-06-02T18:37:55.113Z,1.77
2018-06-02T18:40:22.675Z,2.23
2018-06-02T18:42:50.235Z,2.67
2018-06-02T18:45:18.277Z,2.30
2018-06-02T18:47:45.838Z,2.47
2018-06-02T18:50:13.407Z,2.17
2018-06-02T18:52:41.027Z,2.67
2018-06-02T18:55:08.580Z,2.00
2018-06-02T18:57:36.940Z,2.77
2018-06-02T19:00:04.515Z,2.10
2018-06-02T19:02:32.834Z,2.30
2018-06-02T19:05:00.392Z,2.67
2018-06-02T19:07:27.987Z,4.47
2018-06-02T19:09:55.552Z,3.87
2018-06-02T19:12:23.101Z,3.50
2018-06-02T19:14:50.685Z,4.12
2018-06-02T19:17:18.241Z,2.80
2018-06-02T19:19:45.794Z,2.40
2018-06-02T19:22:13.398Z,3.23
2018-06-02T19:24:40.991Z,3.53
2018-06-02T19:27:08.561Z,4.93
2018-06-02T19:29:36.162Z,4.80
2018-06-02T19:32:04.489Z,3.30
2018-06-02T19:34:32.049Z,5.53
2018-06-02T19:36:59.651Z,4.83
2018-06-02T19:39:27.203Z,3.83
2018-06-02T19:41:54.764Z,5.23
2018-06-02T19:44:22.360Z,3.03
2018-06-02T19:46:49.924Z,3.67
2018-06-02T19:49:17.486Z,2.67
2018-06-02T19:51:45.748Z,5.47
2018-06-02T19:54:13.266Z,5.37
2018-06-02T19:56:40.822Z,4.73
2018-06-02T19:59:08.417Z,4.77
2018-06-02T20:01:35.975Z,5.23
2018-06-02T20:04:03.536Z,5.27
2018-06-02T20:06:31.134Z,3.93
2018-06-02T20:08:58.694Z,4.60
2018-06-02T20:11:26.255Z,3.20
2018-06-02T20:13:53.874Z,4.70
2018-06-02T20:16:21.426Z,3.10
2018-06-02T20:18:49.004Z,4.43
2018-06-02T20:21:16.593Z,4.50
2018-06-02T20:23:44.231Z,3.13
2018-06-02T20:26:11.767Z,4.67
2018-06-02T20:28:39.368Z,4.20
2018-06-02T20:31:07.694Z,4.90
2018-06-02T20:33:35.258Z,3.57
2018-06-02T20:36:02.876Z,5.50
2018-06-02T20:38:31.196Z,5.90
2018-06-02T20:40:58.970Z,8.27
2018-06-02T20:43:26.580Z,6.07
2018-06-02T20:45:55.001Z,4.20
2018-06-02T20:48:23.273Z,6.53
2018-06-02T20:50:50.870Z,4.50
2018-06-02T20:53:18.444Z,8.47
2018-06-02T20:55:45.986Z,4.57
2018-06-02T20:58:14.242Z,9.07
2018-06-02T21:00:41.799Z,6.63
2018-06-02T21:03:09.355Z,3.97
2018-06-02T21:05:36.966Z,4.63
2018-06-02T21:08:04.515Z,6.63
2018-06-02T21:10:33.546Z,5.43
2018-06-02T21:13:01.145Z,6.47
2018-06-02T21:15:31.128Z,6.67
2018-06-02T21:17:58.687Z,6.73
2018-06-02T21:20:26.327Z,6.27
2018-06-02T21:22:53.894Z,4.93
2018-06-02T21:25:22.222Z,8.27
2018-06-02T21:27:50.202Z,7.57
2018-06-02T21:30:17.778Z,7.70
2018-06-02T21:32:45.341Z,7.77
2018-06-02T21:35:12.924Z,7.83
2018-06-02T21:37:40.523Z,6.75
2018-06-02T21:40:08.040Z,9.60
2018-06-02T21:42:35.630Z,6.80
2018-06-02T21:45:03.194Z,7.67
2018-06-02T21:47:30.747Z,7.73
2018-06-02T21:49:58.351Z,6.00
2018-06-02T21:52:25.924Z,7.23
2018-06-02T21:54:53.476Z,6.67
2018-06-02T21:57:21.162Z,7.07
2018-06-02T21:59:48.667Z,6.03
2018-06-02T22:02:16.217Z,8.27
2018-06-02T22:04:43.817Z,6.83
2018-06-02T22:09:38.933Z,6.10
2018-06-02T22:12:06.551Z,6.37
2018-06-02T22:14:34.110Z,9.47
2018-06-02T22:17:02.436Z,6.97
2018-06-02T22:19:30.023Z,6.80
2018-06-02T22:21:57.577Z,8.10
2018-06-02T22:24:25.139Z,8.10
2018-06-02T22:26:52.727Z,9.00
2018-06-02T22:29:21.065Z,8.47
2018-06-02T22:31:48.626Z,7.53
2018-06-02T22:34:16.681Z,9.40
2018-06-02T22:36:44.231Z,7.63
2018-06-02T22:39:11.791Z,7.83
2018-06-02T22:41:39.391Z,8.30
2018-06-02T22:44:06.935Z,6.33
2018-06-02T22:46:34.495Z,6.30
2018-06-02T22:49:02.099Z,6.30
2018-06-02T22:51:57.017Z,8.10
2018-06-02T22:54:25.459Z,5.40
2018-06-02T22:56:52.948Z,16.10
2018-06-02T22:59:20.508Z,5.53
2018-06-02T23:01:48.099Z,7.20
2018-06-02T23:04:15.656Z,6.23
2018-06-02T23:06:43.204Z,8.97
2018-06-02T23:09:10.787Z,6.07
2018-06-02T23:11:38.343Z,7.43
2018-06-02T23:14:05.902Z,8.07
2018-06-02T23:16:33.514Z,8.37
2018-06-02T23:19:01.069Z,8.33
2018-06-02T23:21:28.629Z,6.93
2018-06-02T23:23:56.217Z,5.10
2018-06-02T23:26:23.776Z,9.60
2018-06-02T23:28:51.338Z,9.10
2018-06-02T23:31:18.930Z,6.23
2018-06-02T23:33:46.500Z,11.17
2018-06-02T23:36:16.382Z,9.32
2018-06-02T23:38:44.518Z,10.33
2018-06-02T23:41:12.077Z,8.23
2018-06-02T23:43:39.637Z,10.80
2018-06-02T23:46:07.239Z,11.07
2018-06-02T23:48:35.554Z,7.70
2018-06-02T23:51:03.114Z,12.43
2018-06-02T23:53:30.712Z,8.97
2018-06-02T23:55:58.280Z,9.73
2018-06-02T23:58:25.843Z,10.10
